sensor_id;sensor_type;location;lat;lon;timestamp;temperature;humidity
23347;DHT22;36852;45.466;11.066;2022-12-18T00:00:41;8.90;99.90
23347;DHT22;36852;45.466;11.066;2022-12-18T00:03:10;8.80;99.90
23347;DHT22;36852;45.466;11.066;2022-12-18T00:05:47;8.80;99.90
23347;DHT22;36852;45.466;11.066;2022-12-18T00:08:16;8.80;99.90
23347;DHT22;36852;45.466;11.066;2022-12-18T00:10:45;8.80;99.90
23347;DHT22;36852;45.466;11.066;2022-12-18T00:13:12;8.80;99.90
23347;DHT22;36852;45.466;11.066;2022-12-18T00:15:41;8.80;99.90
23347;DHT22;36852;45.466;11.066;2022-12-18T00:18:09;8.90;99.90
23347;DHT22;36852;45.466;11.066;2022-12-18T00:20:39;8.90;99.90
23347;DHT22;36852;45.466;11.066;2022-12-18T00:23:08;8.90;99.90
23347;DHT22;36852;45.466;11.066;2022-12-18T00:25:36;8.90;99.90
23347;DHT22;36852;45.466;11.066;2022-12-18T00:28:04;8.90;99.90
23347;DHT22;36852;45.466;11.066;2022-12-18T00:30:32;9.00;99.90
23347;DHT22;36852;45.466;11.066;2022-12-18T00:33:00;8.90;99.90
23347;DHT22;36852;45.466;11.066;2022-12-18T00:35:28;9.00;99.90
23347;DHT22;36852;45.466;11.066;2022-12-18T00:37:57;9.00;99.90
23347;DHT22;36852;45.466;11.066;2022-12-18T00:40:25;9.00;99.90
23347;DHT22;36852;45.466;11.066;2022-12-18T00:42:54;9.00;99.90
23347;DHT22;36852;45.466;11.066;2022-12-18T00:45:29;9.00;99.90
23347;DHT22;36852;45.466;11.066;2022-12-18T00:47:57;9.00;99.90
23347;DHT22;36852;45.466;11.066;2022-12-18T00:50:25;9.00;99.90
23347;DHT22;36852;45.466;11.066;2022-12-18T00:53:13;8.90;99.90
23347;DHT22;36852;45.466;11.066;2022-12-18T00:55:41;8.90;99.90
23347;DHT22;36852;45.466;11.066;2022-12-18T00:58:10;8.90;99.90
23347;DHT22;36852;45.466;11.066;2022-12-18T01:00:38;8.90;99.90
23347;DHT22;36852;45.466;11.066;2022-12-18T01:03:09;8.90;99.90
23347;DHT22;36852;45.466;11.066;2022-12-18T01:05:39;9.00;99.90
23347;DHT22;36852;45.466;11.066;2022-12-18T01:08:07;8.90;99.90
23347;DHT22;36852;45.466;11.066;2022-12-18T01:10:35;8.90;99.90
23347;DHT22;36852;45.466;11.066;2022-12-18T01:13:02;8.90;99.90
23347;DHT22;36852;45.466;11.066;2022-12-18T01:15:30;8.90;99.90
23347;DHT22;36852;45.466;11.066;2022-12-18T01:17:58;8.90;99.90
23347;DHT22;36852;45.466;11.066;2022-12-18T01:20:26;8.80;99.90
23347;DHT22;36852;45.466;11.066;2022-12-18T01:22:54;8.80;99.90
23347;DHT22;36852;45.466;11.066;2022-12-18T01:25:21;8.80;99.90
23347;DHT22;36852;45.466;11.066;2022-12-18T01:27:50;8.80;99.90
23347;DHT22;36852;45.466;11.066;2022-12-18T01:30:18;8.90;99.90
23347;DHT22;36852;45.466;11.066;2022-12-18T01:32:46;8.80;99.90
23347;DHT22;36852;45.466;11.066;2022-12-18T01:35:14;8.80;99.90
23347;DHT22;36852;45.466;11.066;2022-12-18T01:37:42;8.80;99.90
23347;DHT22;36852;45.466;11.066;2022-12-18T01:40:10;8.80;99.90
23347;DHT22;36852;45.466;11.066;2022-12-18T01:42:39;8.90;99.90
23347;DHT22;36852;45.466;11.066;2022-12-18T01:47:50;8.90;99.90
23347;DHT22;36852;45.466;11.066;2022-12-18T01:53:11;8.90;99.90
23347;DHT22;36852;45.466;11.066;2022-12-18T01:55:48;8.90;99.90
23347;DHT22;36852;45.466;11.066;2022-12-18T01:58:18;9.00;99.90
23347;DHT22;36852;45.466;11.066;2022-12-18T02:00:46;9.00;99.90
23347;DHT22;36852;45.466;11.066;2022-12-18T02:03:14;9.00;99.90
23347;DHT22;36852;45.466;11.066;2022-12-18T02:11:13;8.90;99.90
23347;DHT22;36852;45.466;11.066;2022-12-18T02:18:47;9.00;99.90
23347;DHT22;36852;45.466;11.066;2022-12-18T02:26:50;9.00;99.90
23347;DHT22;36852;45.466;11.066;2022-12-18T02:29:26;9.00;99.90
23347;DHT22;36852;45.466;11.066;2022-12-18T02:31:56;9.00;99.90
23347;DHT22;36852;45.466;11.066;2022-12-18T02:34:29;9.00;99.90
23347;DHT22;36852;45.466;11.066;2022-12-18T02:36:58;9.00;99.90
23347;DHT22;36852;45.466;11.066;2022-12-18T02:39:30;9.00;99.90
23347;DHT22;36852;45.466;11.066;2022-12-18T02:42:02;9.00;99.90
23347;DHT22;36852;45.466;11.066;2022-12-18T02:44:31;9.00;99.90
23347;DHT22;36852;45.466;11.066;2022-12-18T02:47:00;9.00;99.90
23347;DHT22;36852;45.466;11.066;2022-12-18T02:55:23;9.00;99.90
23347;DHT22;36852;45.466;11.066;2022-12-18T03:03:57;9.10;99.90
23347;DHT22;36852;45.466;11.066;2022-12-18T03:06:30;9.10;99.90
23347;DHT22;36852;45.466;11.066;2022-12-18T03:08:52;9.10;99.90
23347;DHT22;36852;45.466;11.066;2022-12-18T03:11:21;9.10;99.90
23347;DHT22;36852;45.466;11.066;2022-12-18T03:13:55;9.10;99.90
23347;DHT22;36852;45.466;11.066;2022-12-18T03:16:27;9.20;99.90
23347;DHT22;36852;45.466;11.066;2022-12-18T03:18:58;9.10;99.90
23347;DHT22;36852;45.466;11.066;2022-12-18T03:21:43;9.10;99.90
23347;DHT22;36852;45.466;11.066;2022-12-18T03:24:13;9.10;99.90
23347;DHT22;36852;45.466;11.066;2022-12-18T03:26:44;9.10;99.90
23347;DHT22;36852;45.466;11.066;2022-12-18T03:29:22;9.10;99.90
23347;DHT22;36852;45.466;11.066;2022-12-18T03:31:58;9.10;99.90
23347;DHT22;36852;45.466;11.066;2022-12-18T03:34:29;9.10;99.90
23347;DHT22;36852;45.466;11.066;2022-12-18T03:37:01;9.10;99.90
23347;DHT22;36852;45.466;11.066;2022-12-18T03:39:32;9.10;99.90
23347;DHT22;36852;45.466;11.066;2022-12-18T03:42:14;9.10;99.90
23347;DHT22;36852;45.466;11.066;2022-12-18T03:47:28;9.00;99.90
23347;DHT22;36852;45.466;11.066;2022-12-18T03:50:25;9.00;99.90
23347;DHT22;36852;45.466;11.066;2022-12-18T03:52:55;9.00;99.90
23347;DHT22;36852;45.466;11.066;2022-12-18T03:55:26;9.00;99.90
23347;DHT22;36852;45.466;11.066;2022-12-18T03:57:57;9.00;99.90
23347;DHT22;36852;45.466;11.066;2022-12-18T04:00:28;9.00;99.90
23347;DHT22;36852;45.466;11.066;2022-12-18T04:02:59;9.00;99.90
23347;DHT22;36852;45.466;11.066;2022-12-18T04:05:34;9.00;99.90
23347;DHT22;36852;45.466;11.066;2022-12-18T04:08:04;9.00;99.90
23347;DHT22;36852;45.466;11.066;2022-12-18T04:10:34;9.00;99.90
23347;DHT22;36852;45.466;11.066;2022-12-18T04:13:02;9.00;99.90
23347;DHT22;36852;45.466;11.066;2022-12-18T04:15:33;9.10;99.90
23347;DHT22;36852;45.466;11.066;2022-12-18T04:18:02;9.00;99.90
23347;DHT22;36852;45.466;11.066;2022-12-18T04:20:32;9.00;99.90
23347;DHT22;36852;45.466;11.066;2022-12-18T04:23:00;9.00;99.90
23347;DHT22;36852;45.466;11.066;2022-12-18T04:25:28;9.00;99.90
23347;DHT22;36852;45.466;11.066;2022-12-18T04:28:07;8.90;99.90
23347;DHT22;36852;45.466;11.066;2022-12-18T04:30:37;8.90;99.90
23347;DHT22;36852;45.466;11.066;2022-12-18T04:33:10;8.80;99.90
23347;DHT22;36852;45.466;11.066;2022-12-18T04:35:39;8.80;99.90
23347;DHT22;36852;45.466;11.066;2022-12-18T04:38:08;8.80;99.90
23347;DHT22;36852;45.466;11.066;2022-12-18T04:40:38;8.80;99.90
23347;DHT22;36852;45.466;11.066;2022-12-18T04:43:09;8.80;99.90
23347;DHT22;36852;45.466;11.066;2022-12-18T04:45:38;8.80;99.90
23347;DHT22;36852;45.466;11.066;2022-12-18T04:48:07;8.80;99.90
23347;DHT22;36852;45.466;11.066;2022-12-18T04:50:35;8.80;99.90
23347;DHT22;36852;45.466;11.066;2022-12-18T04:53:03;8.80;99.90
23347;DHT22;36852;45.466;11.066;2022-12-18T04:55:31;8.80;99.90
23347;DHT22;36852;45.466;11.066;2022-12-18T04:57:59;8.80;99.90
23347;DHT22;36852;45.466;11.066;2022-12-18T05:00:27;8.80;99.90
23347;DHT22;36852;45.466;11.066;2022-12-18T05:02:56;8.80;99.90
23347;DHT22;36852;45.466;11.066;2022-12-18T05:05:23;8.80;99.90
23347;DHT22;36852;45.466;11.066;2022-12-18T05:07:52;8.80;99.90
23347;DHT22;36852;45.466;11.066;2022-12-18T05:10:19;8.80;99.90
23347;DHT22;36852;45.466;11.066;2022-12-18T05:12:48;8.80;99.90
23347;DHT22;36852;45.466;11.066;2022-12-18T05:15:30;8.80;99.90
23347;DHT22;36852;45.466;11.066;2022-12-18T05:17:58;8.80;99.90
23347;DHT22;36852;45.466;11.066;2022-12-18T05:20:27;8.90;99.90
23347;DHT22;36852;45.466;11.066;2022-12-18T05:22:55;8.80;99.90
23347;DHT22;36852;45.466;11.066;2022-12-18T05:25:24;8.80;99.90
23347;DHT22;36852;45.466;11.066;2022-12-18T05:27:52;8.80;99.90
23347;DHT22;36852;45.466;11.066;2022-12-18T05:30:29;8.80;99.90
23347;DHT22;36852;45.466;11.066;2022-12-18T05:32:59;8.80;99.90
23347;DHT22;36852;45.466;11.066;2022-12-18T05:35:27;8.80;99.90
23347;DHT22;36852;45.466;11.066;2022-12-18T05:37:55;8.80;99.90
23347;DHT22;36852;45.466;11.066;2022-12-18T05:40:24;8.80;99.90
23347;DHT22;36852;45.466;11.066;2022-12-18T05:42:52;8.80;99.90
23347;DHT22;36852;45.466;11.066;2022-12-18T05:45:19;8.80;99.90
23347;DHT22;36852;45.466;11.066;2022-12-18T05:47:47;8.80;99.90
23347;DHT22;36852;45.466;11.066;2022-12-18T05:50:23;8.80;99.90
23347;DHT22;36852;45.466;11.066;2022-12-18T05:52:52;8.80;99.90
23347;DHT22;36852;45.466;11.066;2022-12-18T05:55:20;8.80;99.90
23347;DHT22;36852;45.466;11.066;2022-12-18T05:57:48;8.80;99.90
23347;DHT22;36852;45.466;11.066;2022-12-18T06:00:16;8.80;99.90
23347;DHT22;36852;45.466;11.066;2022-12-18T06:02:47;8.80;99.90
23347;DHT22;36852;45.466;11.066;2022-12-18T06:05:18;8.80;99.90
23347;DHT22;36852;45.466;11.066;2022-12-18T06:07:47;8.80;99.90
23347;DHT22;36852;45.466;11.066;2022-12-18T06:10:15;8.80;99.90
23347;DHT22;36852;45.466;11.066;2022-12-18T06:12:43;8.80;99.90
23347;DHT22;36852;45.466;11.066;2022-12-18T06:15:11;8.80;99.90
23347;DHT22;36852;45.466;11.066;2022-12-18T06:17:39;8.80;99.90
23347;DHT22;36852;45.466;11.066;2022-12-18T06:20:08;8.80;99.90
23347;DHT22;36852;45.466;11.066;2022-12-18T06:22:38;8.80;99.90
23347;DHT22;36852;45.466;11.066;2022-12-18T06:25:09;8.90;99.90
23347;DHT22;36852;45.466;11.066;2022-12-18T06:27:37;8.90;99.90
23347;DHT22;36852;45.466;11.066;2022-12-18T06:30:09;8.90;99.90
23347;DHT22;36852;45.466;11.066;2022-12-18T06:32:37;8.90;99.90
23347;DHT22;36852;45.466;11.066;2022-12-18T06:35:06;8.90;99.90
23347;DHT22;36852;45.466;11.066;2022-12-18T06:37:34;8.90;99.90
23347;DHT22;36852;45.466;11.066;2022-12-18T06:40:04;8.90;99.90
23347;DHT22;36852;45.466;11.066;2022-12-18T06:42:35;8.90;99.90
23347;DHT22;36852;45.466;11.066;2022-12-18T06:45:04;8.90;99.90
23347;DHT22;36852;45.466;11.066;2022-12-18T06:47:32;8.90;99.90
23347;DHT22;36852;45.466;11.066;2022-12-18T06:49:59;8.90;99.90
23347;DHT22;36852;45.466;11.066;2022-12-18T06:52:27;8.90;99.90
23347;DHT22;36852;45.466;11.066;2022-12-18T06:54:56;8.90;99.90
23347;DHT22;36852;45.466;11.066;2022-12-18T06:57:24;8.90;99.90
23347;DHT22;36852;45.466;11.066;2022-12-18T06:59:52;8.90;99.90
23347;DHT22;36852;45.466;11.066;2022-12-18T07:02:20;8.90;99.90
23347;DHT22;36852;45.466;11.066;2022-12-18T07:04:48;8.90;99.90
23347;DHT22;36852;45.466;11.066;2022-12-18T07:07:19;8.90;99.90
23347;DHT22;36852;45.466;11.066;2022-12-18T07:09:49;8.90;99.90
23347;DHT22;36852;45.466;11.066;2022-12-18T07:12:17;9.00;99.90
23347;DHT22;36852;45.466;11.066;2022-12-18T07:14:45;8.90;99.90
23347;DHT22;36852;45.466;11.066;2022-12-18T07:17:14;8.90;99.90
23347;DHT22;36852;45.466;11.066;2022-12-18T07:19:42;9.00;99.90
23347;DHT22;36852;45.466;11.066;2022-12-18T07:22:10;8.90;99.90
23347;DHT22;36852;45.466;11.066;2022-12-18T07:24:38;8.90;99.90
23347;DHT22;36852;45.466;11.066;2022-12-18T07:27:07;9.00;99.90
23347;DHT22;36852;45.466;11.066;2022-12-18T07:29:35;9.00;99.90
23347;DHT22;36852;45.466;11.066;2022-12-18T07:32:04;9.00;99.90
23347;DHT22;36852;45.466;11.066;2022-12-18T07:34:32;9.00;99.90
23347;DHT22;36852;45.466;11.066;2022-12-18T07:37:01;9.00;99.90
23347;DHT22;36852;45.466;11.066;2022-12-18T07:39:29;9.00;99.90
23347;DHT22;36852;45.466;11.066;2022-12-18T07:41:56;9.00;99.90
23347;DHT22;36852;45.466;11.066;2022-12-18T07:44:42;9.00;99.90
23347;DHT22;36852;45.466;11.066;2022-12-18T07:47:11;9.10;99.90
23347;DHT22;36852;45.466;11.066;2022-12-18T07:49:39;9.00;99.90
23347;DHT22;36852;45.466;11.066;2022-12-18T07:52:08;9.10;99.90
23347;DHT22;36852;45.466;11.066;2022-12-18T07:54:37;9.00;99.90
23347;DHT22;36852;45.466;11.066;2022-12-18T07:57:06;9.00;99.90
23347;DHT22;36852;45.466;11.066;2022-12-18T07:59:36;9.00;99.90
23347;DHT22;36852;45.466;11.066;2022-12-18T08:02:04;9.10;99.90
23347;DHT22;36852;45.466;11.066;2022-12-18T08:04:33;9.10;99.90
23347;DHT22;36852;45.466;11.066;2022-12-18T08:07:01;9.10;99.90
23347;DHT22;36852;45.466;11.066;2022-12-18T08:09:28;9.10;99.90
23347;DHT22;36852;45.466;11.066;2022-12-18T08:11:56;9.10;99.90
23347;DHT22;36852;45.466;11.066;2022-12-18T08:14:24;9.10;99.90
23347;DHT22;36852;45.466;11.066;2022-12-18T08:16:52;9.10;99.90
23347;DHT22;36852;45.466;11.066;2022-12-18T08:19:21;9.20;99.90
23347;DHT22;36852;45.466;11.066;2022-12-18T08:21:49;9.20;99.90
23347;DHT22;36852;45.466;11.066;2022-12-18T08:24:17;9.20;99.90
23347;DHT22;36852;45.466;11.066;2022-12-18T08:26:45;9.20;99.90
23347;DHT22;36852;45.466;11.066;2022-12-18T08:29:16;9.20;99.90
23347;DHT22;36852;45.466;11.066;2022-12-18T08:31:46;9.20;99.90
23347;DHT22;36852;45.466;11.066;2022-12-18T08:34:14;9.20;99.90
23347;DHT22;36852;45.466;11.066;2022-12-18T08:36:42;9.20;99.90
23347;DHT22;36852;45.466;11.066;2022-12-18T08:39:10;9.20;99.90
23347;DHT22;36852;45.466;11.066;2022-12-18T08:41:38;9.20;99.90
23347;DHT22;36852;45.466;11.066;2022-12-18T08:44:10;9.30;99.90
23347;DHT22;36852;45.466;11.066;2022-12-18T08:46:56;9.30;99.90
23347;DHT22;36852;45.466;11.066;2022-12-18T08:49:24;9.30;99.90
23347;DHT22;36852;45.466;11.066;2022-12-18T08:52:13;9.30;99.90
23347;DHT22;36852;45.466;11.066;2022-12-18T08:54:41;9.30;99.90
23347;DHT22;36852;45.466;11.066;2022-12-18T08:57:08;9.40;99.90
23347;DHT22;36852;45.466;11.066;2022-12-18T08:59:36;9.40;99.90
23347;DHT22;36852;45.466;11.066;2022-12-18T09:02:04;9.40;99.90
23347;DHT22;36852;45.466;11.066;2022-12-18T09:04:32;9.50;99.90
23347;DHT22;36852;45.466;11.066;2022-12-18T09:07:00;9.50;99.90
23347;DHT22;36852;45.466;11.066;2022-12-18T09:09:28;9.50;99.90
23347;DHT22;36852;45.466;11.066;2022-12-18T09:11:56;9.50;99.90
23347;DHT22;36852;45.466;11.066;2022-12-18T09:14:25;9.50;99.90
23347;DHT22;36852;45.466;11.066;2022-12-18T09:16:57;9.50;99.90
23347;DHT22;36852;45.466;11.066;2022-12-18T09:19:26;9.60;99.90
23347;DHT22;36852;45.466;11.066;2022-12-18T09:21:54;9.60;99.90
23347;DHT22;36852;45.466;11.066;2022-12-18T09:24:23;9.50;99.90
23347;DHT22;36852;45.466;11.066;2022-12-18T09:26:54;9.50;99.90
23347;DHT22;36852;45.466;11.066;2022-12-18T09:29:24;9.40;99.90
23347;DHT22;36852;45.466;11.066;2022-12-18T09:31:54;9.40;99.90
23347;DHT22;36852;45.466;11.066;2022-12-18T09:34:22;9.40;99.90
23347;DHT22;36852;45.466;11.066;2022-12-18T09:36:50;9.40;99.90
23347;DHT22;36852;45.466;11.066;2022-12-18T09:39:21;9.40;99.90
23347;DHT22;36852;45.466;11.066;2022-12-18T09:41:52;9.40;99.90
23347;DHT22;36852;45.466;11.066;2022-12-18T09:47:20;9.50;99.90
23347;DHT22;36852;45.466;11.066;2022-12-18T09:50:01;9.50;99.90
23347;DHT22;36852;45.466;11.066;2022-12-18T09:52:43;9.60;99.90
23347;DHT22;36852;45.466;11.066;2022-12-18T09:55:28;9.60;99.90
23347;DHT22;36852;45.466;11.066;2022-12-18T09:58:17;9.70;99.90
23347;DHT22;36852;45.466;11.066;2022-12-18T10:00:45;9.70;99.90
23347;DHT22;36852;45.466;11.066;2022-12-18T10:03:15;9.80;99.90
23347;DHT22;36852;45.466;11.066;2022-12-18T10:17:12;9.90;99.90
23347;DHT22;36852;45.466;11.066;2022-12-18T10:19:45;10.00;99.90
23347;DHT22;36852;45.466;11.066;2022-12-18T10:22:44;10.00;99.90
23347;DHT22;36852;45.466;11.066;2022-12-18T10:27:43;10.00;99.90
23347;DHT22;36852;45.466;11.066;2022-12-18T10:30:14;10.10;99.90
23347;DHT22;36852;45.466;11.066;2022-12-18T10:32:45;10.00;99.90
23347;DHT22;36852;45.466;11.066;2022-12-18T10:35:25;10.00;99.90
23347;DHT22;36852;45.466;11.066;2022-12-18T10:40:59;10.00;99.90
23347;DHT22;36852;45.466;11.066;2022-12-18T10:43:39;10.10;99.90
23347;DHT22;36852;45.466;11.066;2022-12-18T10:51:30;10.20;99.90
23347;DHT22;36852;45.466;11.066;2022-12-18T10:54:03;10.20;99.90
23347;DHT22;36852;45.466;11.066;2022-12-18T10:56:34;10.20;99.90
23347;DHT22;36852;45.466;11.066;2022-12-18T10:59:06;10.20;99.90
23347;DHT22;36852;45.466;11.066;2022-12-18T11:01:54;10.20;99.90
23347;DHT22;36852;45.466;11.066;2022-12-18T11:04:25;10.30;99.90
23347;DHT22;36852;45.466;11.066;2022-12-18T11:09:59;10.40;99.90
23347;DHT22;36852;45.466;11.066;2022-12-18T11:12:20;10.50;99.90
23347;DHT22;36852;45.466;11.066;2022-12-18T11:14:51;10.50;99.90
23347;DHT22;36852;45.466;11.066;2022-12-18T11:17:28;10.60;99.90
23347;DHT22;36852;45.466;11.066;2022-12-18T11:19:57;10.60;99.90
23347;DHT22;36852;45.466;11.066;2022-12-18T11:22:28;10.70;99.90
23347;DHT22;36852;45.466;11.066;2022-12-18T11:25:03;10.70;99.90
23347;DHT22;36852;45.466;11.066;2022-12-18T11:27:30;10.70;99.90
23347;DHT22;36852;45.466;11.066;2022-12-18T11:30:09;10.80;99.90
23347;DHT22;36852;45.466;11.066;2022-12-18T11:32:40;10.90;99.90
23347;DHT22;36852;45.466;11.066;2022-12-18T11:35:19;10.90;99.90
23347;DHT22;36852;45.466;11.066;2022-12-18T11:38:27;11.00;99.90
23347;DHT22;36852;45.466;11.066;2022-12-18T11:40:34;11.00;99.90
23347;DHT22;36852;45.466;11.066;2022-12-18T11:46:14;11.10;99.90
23347;DHT22;36852;45.466;11.066;2022-12-18T11:48:54;11.20;99.90
23347;DHT22;36852;45.466;11.066;2022-12-18T11:51:34;11.20;99.90
23347;DHT22;36852;45.466;11.066;2022-12-18T11:54:14;11.30;99.90
23347;DHT22;36852;45.466;11.066;2022-12-18T12:08:42;11.70;99.90
23347;DHT22;36852;45.466;11.066;2022-12-18T12:19:39;12.00;99.90
23347;DHT22;36852;45.466;11.066;2022-12-18T12:30:55;12.20;99.90
23347;DHT22;36852;45.466;11.066;2022-12-18T12:38:55;12.70;99.90
23347;DHT22;36852;45.466;11.066;2022-12-18T12:41:26;13.00;99.90
23347;DHT22;36852;45.466;11.066;2022-12-18T12:44:27;13.20;99.90
23347;DHT22;36852;45.466;11.066;2022-12-18T12:46:52;13.30;99.90
23347;DHT22;36852;45.466;11.066;2022-12-18T12:49:24;13.50;99.90
23347;DHT22;36852;45.466;11.066;2022-12-18T12:52:03;13.60;99.90
23347;DHT22;36852;45.466;11.066;2022-12-18T12:54:28;13.80;99.90
23347;DHT22;36852;45.466;11.066;2022-12-18T13:02:22;14.40;99.90
23347;DHT22;36852;45.466;11.066;2022-12-18T13:04:58;14.40;99.90
23347;DHT22;36852;45.466;11.066;2022-12-18T13:12:57;15.00;99.30
23347;DHT22;36852;45.466;11.066;2022-12-18T13:18:24;15.60;98.20
23347;DHT22;36852;45.466;11.066;2022-12-18T13:21:02;16.00;96.30
23347;DHT22;36852;45.466;11.066;2022-12-18T13:28:52;17.60;91.50
23347;DHT22;36852;45.466;11.066;2022-12-18T13:34:21;19.80;80.90
23347;DHT22;36852;45.466;11.066;2022-12-18T13:36:52;20.60;75.70
23347;DHT22;36852;45.466;11.066;2022-12-18T13:39:31;20.80;71.80
23347;DHT22;36852;45.466;11.066;2022-12-18T13:44:39;21.90;65.20
23347;DHT22;36852;45.466;11.066;2022-12-18T13:47:36;22.10;60.80
23347;DHT22;36852;45.466;11.066;2022-12-18T13:50:23;22.60;59.40
23347;DHT22;36852;45.466;11.066;2022-12-18T13:52:52;23.30;56.70
23347;DHT22;36852;45.466;11.066;2022-12-18T13:55:22;23.30;53.50
23347;DHT22;36852;45.466;11.066;2022-12-18T13:58:02;23.60;53.10
23347;DHT22;36852;45.466;11.066;2022-12-18T14:02:54;23.50;50.10
23347;DHT22;36852;45.466;11.066;2022-12-18T14:05:29;23.50;50.70
23347;DHT22;36852;45.466;11.066;2022-12-18T14:08:12;23.30;49.70
23347;DHT22;36852;45.466;11.066;2022-12-18T14:10:44;23.70;49.90
23347;DHT22;36852;45.466;11.066;2022-12-18T14:13:31;23.50;48.40
23347;DHT22;36852;45.466;11.066;2022-12-18T14:16:00;23.70;48.60
23347;DHT22;36852;45.466;11.066;2022-12-18T14:21:19;23.60;47.70
23347;DHT22;36852;45.466;11.066;2022-12-18T14:23:48;23.10;47.70
23347;DHT22;36852;45.466;11.066;2022-12-18T14:26:28;23.00;48.50
23347;DHT22;36852;45.466;11.066;2022-12-18T14:28:58;22.70;48.70
23347;DHT22;36852;45.466;11.066;2022-12-18T14:31:29;22.20;48.80
23347;DHT22;36852;45.466;11.066;2022-12-18T14:33:58;21.90;49.40
23347;DHT22;36852;45.466;11.066;2022-12-18T14:36:27;21.20;50.20
23347;DHT22;36852;45.466;11.066;2022-12-18T14:38:58;20.40;51.30
23347;DHT22;36852;45.466;11.066;2022-12-18T14:41:26;19.80;53.40
23347;DHT22;36852;45.466;11.066;2022-12-18T14:44:04;18.80;54.90
23347;DHT22;36852;45.466;11.066;2022-12-18T14:46:38;18.50;57.10
23347;DHT22;36852;45.466;11.066;2022-12-18T14:52:01;17.50;59.10
23347;DHT22;36852;45.466;11.066;2022-12-18T14:54:31;16.90;60.80
23347;DHT22;36852;45.466;11.066;2022-12-18T14:57:02;16.50;63.30
23347;DHT22;36852;45.466;11.066;2022-12-18T14:59:32;16.10;65.00
23347;DHT22;36852;45.466;11.066;2022-12-18T15:02:26;15.70;67.00
23347;DHT22;36852;45.466;11.066;2022-12-18T15:05:01;15.30;67.20
23347;DHT22;36852;45.466;11.066;2022-12-18T15:20:52;13.90;76.00
23347;DHT22;36852;45.466;11.066;2022-12-18T15:23:23;13.80;78.20
23347;DHT22;36852;45.466;11.066;2022-12-18T15:25:56;13.50;79.80
23347;DHT22;36852;45.466;11.066;2022-12-18T15:28:30;13.40;81.40
23347;DHT22;36852;45.466;11.066;2022-12-18T15:36:23;13.00;89.60
23347;DHT22;36852;45.466;11.066;2022-12-18T15:38:54;12.80;91.30
23347;DHT22;36852;45.466;11.066;2022-12-18T15:41:25;12.70;93.00
23347;DHT22;36852;45.466;11.066;2022-12-18T15:43:56;12.50;94.40
23347;DHT22;36852;45.466;11.066;2022-12-18T15:46:25;12.30;94.90
23347;DHT22;36852;45.466;11.066;2022-12-18T15:48:56;12.20;96.20
23347;DHT22;36852;45.466;11.066;2022-12-18T15:51:32;12.10;97.10
23347;DHT22;36852;45.466;11.066;2022-12-18T15:54:03;12.00;98.20
23347;DHT22;36852;45.466;11.066;2022-12-18T15:56:32;11.80;99.40
23347;DHT22;36852;45.466;11.066;2022-12-18T15:59:19;11.60;99.90
23347;DHT22;36852;45.466;11.066;2022-12-18T16:01:50;11.50;99.90
23347;DHT22;36852;45.466;11.066;2022-12-18T16:04:22;11.30;99.90
23347;DHT22;36852;45.466;11.066;2022-12-18T16:06:50;11.20;99.90
23347;DHT22;36852;45.466;11.066;2022-12-18T16:09:20;11.00;99.90
23347;DHT22;36852;45.466;11.066;2022-12-18T16:11:50;10.90;99.90
23347;DHT22;36852;45.466;11.066;2022-12-18T16:16:56;10.70;99.90
23347;DHT22;36852;45.466;11.066;2022-12-18T16:19:25;10.60;99.90
23347;DHT22;36852;45.466;11.066;2022-12-18T16:21:56;10.50;99.90
23347;DHT22;36852;45.466;11.066;2022-12-18T16:24:27;10.40;99.90
23347;DHT22;36852;45.466;11.066;2022-12-18T16:26:58;10.40;99.90
23347;DHT22;36852;45.466;11.066;2022-12-18T16:29:28;10.30;99.90
23347;DHT22;36852;45.466;11.066;2022-12-18T16:31:58;10.20;99.90
23347;DHT22;36852;45.466;11.066;2022-12-18T16:37:02;10.00;99.90
23347;DHT22;36852;45.466;11.066;2022-12-18T16:39:36;10.00;99.90
23347;DHT22;36852;45.466;11.066;2022-12-18T16:42:10;10.00;99.90
23347;DHT22;36852;45.466;11.066;2022-12-18T16:44:52;9.90;99.90
23347;DHT22;36852;45.466;11.066;2022-12-18T16:47:21;9.90;99.90
23347;DHT22;36852;45.466;11.066;2022-12-18T16:49:49;9.80;99.90
23347;DHT22;36852;45.466;11.066;2022-12-18T16:52:21;9.70;99.90
23347;DHT22;36852;45.466;11.066;2022-12-18T16:54:50;9.70;99.90
23347;DHT22;36852;45.466;11.066;2022-12-18T16:57:19;9.70;99.90
23347;DHT22;36852;45.466;11.066;2022-12-18T16:59:50;9.60;99.90
23347;DHT22;36852;45.466;11.066;2022-12-18T17:02:25;9.60;99.90
23347;DHT22;36852;45.466;11.066;2022-12-18T17:04:56;9.60;99.90
23347;DHT22;36852;45.466;11.066;2022-12-18T17:07:25;9.50;99.90
23347;DHT22;36852;45.466;11.066;2022-12-18T17:09:53;9.50;99.90
23347;DHT22;36852;45.466;11.066;2022-12-18T17:12:22;9.50;99.90
23347;DHT22;36852;45.466;11.066;2022-12-18T17:14:50;9.40;99.90
23347;DHT22;36852;45.466;11.066;2022-12-18T17:17:19;9.40;99.90
23347;DHT22;36852;45.466;11.066;2022-12-18T17:19:50;9.30;99.90
23347;DHT22;36852;45.466;11.066;2022-12-18T17:22:20;9.30;99.90
23347;DHT22;36852;45.466;11.066;2022-12-18T17:24:49;9.20;99.90
23347;DHT22;36852;45.466;11.066;2022-12-18T17:27:18;9.20;99.90
23347;DHT22;36852;45.466;11.066;2022-12-18T17:29:48;9.20;99.90
23347;DHT22;36852;45.466;11.066;2022-12-18T17:32:16;9.20;99.90
23347;DHT22;36852;45.466;11.066;2022-12-18T17:34:49;9.20;99.90
23347;DHT22;36852;45.466;11.066;2022-12-18T17:37:17;9.20;99.90
23347;DHT22;36852;45.466;11.066;2022-12-18T17:39:49;9.10;99.90
23347;DHT22;36852;45.466;11.066;2022-12-18T17:42:19;9.10;99.90
23347;DHT22;36852;45.466;11.066;2022-12-18T17:44:47;9.00;99.90
23347;DHT22;36852;45.466;11.066;2022-12-18T17:47:15;9.00;99.90
23347;DHT22;36852;45.466;11.066;2022-12-18T17:49:44;9.00;99.90
23347;DHT22;36852;45.466;11.066;2022-12-18T17:52:12;9.00;99.90
23347;DHT22;36852;45.466;11.066;2022-12-18T17:54:40;8.90;99.90
23347;DHT22;36852;45.466;11.066;2022-12-18T17:57:10;8.90;99.90
23347;DHT22;36852;45.466;11.066;2022-12-18T17:59:38;8.90;99.90
23347;DHT22;36852;45.466;11.066;2022-12-18T18:02:09;8.80;99.90
23347;DHT22;36852;45.466;11.066;2022-12-18T18:04:39;8.80;99.90
23347;DHT22;36852;45.466;11.066;2022-12-18T18:07:07;8.80;99.90
23347;DHT22;36852;45.466;11.066;2022-12-18T18:09:36;8.70;99.90
23347;DHT22;36852;45.466;11.066;2022-12-18T18:12:04;8.70;99.90
23347;DHT22;36852;45.466;11.066;2022-12-18T18:14:52;8.70;99.90
23347;DHT22;36852;45.466;11.066;2022-12-18T18:17:20;8.70;99.90
23347;DHT22;36852;45.466;11.066;2022-12-18T18:19:48;8.70;99.90
23347;DHT22;36852;45.466;11.066;2022-12-18T18:22:16;8.60;99.90
23347;DHT22;36852;45.466;11.066;2022-12-18T18:24:48;8.60;99.90
23347;DHT22;36852;45.466;11.066;2022-12-18T18:27:16;8.60;99.90
23347;DHT22;36852;45.466;11.066;2022-12-18T18:29:45;8.60;99.90